Time;durP1;ratioP1;P1;durP2;ratioP2;P2;SDS_P1;SDS_P2;PMS_P1;PMS_P2;Temp;Humidity;BMP_temperature;BMP_pressure;BME280_temperature;BME280_humidity;BME280_pressure;Samples;Min_cycle;Max_cycle;Signal;HPM_P1;HPM_P2
2023/08/02 00:00:10;;;;;;;6.70;2.50;;;;;;;17.40;70.01;99620.41;4161836;28;20124;-65
2023/08/02 00:02:17;;;;;;;7.93;2.53;;;;;;;17.40;70.51;99616.94;4142654;28;20037;-65
2023/08/02 00:04:20;;;;;;;8.50;2.80;;;;;;;17.36;71.16;99616.16;4162090;28;20578;-64
2023/08/02 00:06:22;;;;;;;5.10;2.30;;;;;;;17.34;71.96;99619.72;4158012;28;20458;-65
2023/08/02 00:08:26;;;;;;;5.63;2.22;;;;;;;17.30;72.08;99611.06;4144041;28;20499;-65
2023/08/02 00:10:29;;;;;;;7.40;2.63;;;;;;;17.27;72.41;99619.91;4157064;28;20057;-65
2023/08/02 00:12:32;;;;;;;9.13;2.70;;;;;;;17.25;72.30;99612.97;4160991;28;20041;-65
2023/08/02 00:14:35;;;;;;;7.82;3.60;;;;;;;17.27;72.11;99600.63;4144854;28;20041;-65
2023/08/02 00:16:38;;;;;;;6.90;2.63;;;;;;;17.26;72.06;99599.78;4156410;28;20037;-65
2023/08/02 00:18:41;;;;;;;4.82;2.83;;;;;;;17.30;71.67;99595.28;4161538;28;20073;-65
2023/08/02 00:20:45;;;;;;;7.43;2.70;;;;;;;17.26;71.77;99591.91;4161615;28;20411;-66
2023/08/02 00:22:47;;;;;;;6.72;2.67;;;;;;;17.28;72.03;99586.59;4160243;28;20264;-65
2023/08/02 00:24:50;;;;;;;6.40;2.42;;;;;;;17.28;71.49;99589.22;4161316;28;20121;-65
2023/08/02 00:26:55;;;;;;;10.52;2.90;;;;;;;17.23;71.44;99584.13;4144058;28;20053;-65
2023/08/02 00:28:57;;;;;;;4.97;2.70;;;;;;;17.24;71.48;99574.47;4160350;28;20038;-65
2023/08/02 00:31:00;;;;;;;5.32;2.45;;;;;;;17.28;71.24;99561.19;4143934;28;20030;-65
2023/08/02 00:33:04;;;;;;;6.63;2.28;;;;;;;17.31;70.85;99555.00;4144291;28;20543;-65
2023/08/02 00:35:08;;;;;;;7.45;3.10;;;;;;;17.20;71.45;99551.78;4144472;28;20038;-65
2023/08/02 00:37:11;;;;;;;3.90;2.28;;;;;;;17.17;71.41;99558.03;4143742;28;20661;-65
2023/08/02 00:39:14;;;;;;;6.25;2.55;;;;;;;17.19;71.85;99555.34;4144040;28;20041;-65
2023/08/02 00:41:17;;;;;;;7.82;2.50;;;;;;;17.21;71.61;99558.78;4127492;28;20040;-65
2023/08/02 00:43:22;;;;;;;5.97;2.53;;;;;;;17.21;71.51;99567.50;4159811;28;20033;-65
2023/08/02 00:45:24;;;;;;;7.68;3.03;;;;;;;17.13;71.72;99569.50;4155944;28;20037;-65
2023/08/02 00:47:28;;;;;;;9.57;2.50;;;;;;;17.13;71.79;99572.13;4156371;28;20080;-65
2023/08/02 00:49:31;;;;;;;6.63;2.75;;;;;;;17.10;72.05;99567.81;4138997;28;20061;-64
2023/08/02 00:51:33;;;;;;;7.05;2.83;;;;;;;17.10;72.22;99565.19;4127531;28;20129;-65
2023/08/02 00:53:36;;;;;;;5.82;2.58;;;;;;;17.07;72.58;99565.28;4155595;28;20040;-64
2023/08/02 00:55:38;;;;;;;6.20;3.10;;;;;;;17.12;72.55;99566.94;4144470;28;20048;-65
2023/08/02 00:57:42;;;;;;;5.53;2.53;;;;;;;17.09;72.29;99555.59;4143643;28;20038;-64
2023/08/02 00:59:45;;;;;;;3.95;2.45;;;;;;;17.06;72.64;99555.66;4127589;28;20041;-65
2023/08/02 01:01:48;;;;;;;6.85;2.83;;;;;;;17.07;72.43;99553.91;4160902;28;20033;-65
2023/08/02 01:03:52;;;;;;;5.47;2.40;;;;;;;17.05;72.61;99556.56;4144118;28;20033;-65
2023/08/02 01:05:59;;;;;;;7.15;2.53;;;;;;;17.07;72.46;99548.66;4144297;28;20092;-65
2023/08/02 01:08:08;;;;;;;6.10;2.40;;;;;;;17.02;72.46;99533.00;4142736;28;20451;-64
2023/08/02 01:10:15;;;;;;;6.35;2.45;;;;;;;16.99;72.62;99543.59;4161151;28;20132;-65
2023/08/02 01:12:21;;;;;;;6.03;2.55;;;;;;;17.04;72.28;99539.09;4158997;28;20054;-65
2023/08/02 01:14:26;;;;;;;7.97;2.35;;;;;;;17.00;72.72;99536.59;4159901;28;20076;-64
2023/08/02 01:16:32;;;;;;;6.95;2.60;;;;;;;17.04;72.27;99536.47;4144108;28;20585;-65
2023/08/02 01:18:35;;;;;;;5.13;2.50;;;;;;;17.03;72.00;99531.28;4127561;28;20038;-65
2023/08/02 01:20:40;;;;;;;3.50;2.40;;;;;;;17.07;71.81;99533.75;4144214;28;20042;-65
2023/08/02 01:22:42;;;;;;;7.32;2.10;;;;;;;17.01;71.97;99531.31;4158582;28;20033;-65
2023/08/02 01:24:45;;;;;;;5.47;2.40;;;;;;;17.07;72.00;99532.91;4143847;28;20121;-65
2023/08/02 01:26:49;;;;;;;5.38;2.17;;;;;;;17.06;71.98;99539.91;4163888;28;20132;-65
2023/08/02 01:28:55;;;;;;;7.07;2.20;;;;;;;17.05;71.69;99535.56;4146516;28;20057;-65
2023/08/02 01:31:01;;;;;;;4.80;2.30;;;;;;;17.04;71.78;99546.97;4142739;28;20049;-65
2023/08/02 01:33:05;;;;;;;7.07;2.70;;;;;;;17.05;71.83;99542.59;4164523;28;20399;-65
2023/08/02 01:35:09;;;;;;;6.28;2.30;;;;;;;17.08;71.68;99532.00;4146818;28;20072;-65
2023/08/02 01:37:14;;;;;;;10.50;2.67;;;;;;;17.08;71.69;99540.75;4146429;28;20127;-65
2023/08/02 01:39:17;;;;;;;;;;;;;;;16.95;72.07;99535.84;4158218;28;20069;-65
2023/08/02 01:41:20;;;;;;;6.55;2.28;;;;;;;17.07;71.70;99533.75;4161445;28;20295;-65
2023/08/02 01:43:22;;;;;;;10.02;3.85;;;;;;;17.14;71.90;99537.06;4164438;28;20072;-65
2023/08/02 01:45:25;;;;;;;9.15;2.58;;;;;;;17.19;71.07;99535.19;4146793;28;20061;-65
2023/08/02 01:47:27;;;;;;;3.95;1.90;;;;;;;17.12;71.38;99523.13;4145890;28;20483;-65
2023/08/02 01:49:30;;;;;;;7.30;2.78;;;;;;;17.09;71.49;99518.81;4144585;28;20042;-65
2023/08/02 01:51:33;;;;;;;6.32;2.50;;;;;;;17.04;71.26;99515.47;4144204;28;20034;-65
2023/08/02 01:53:37;;;;;;;8.57;2.35;;;;;;;17.02;70.83;99517.25;4143153;28;20077;-65
2023/08/02 01:55:40;;;;;;;5.68;2.03;;;;;;;17.10;70.81;99510.03;4140166;28;20438;-65
2023/08/02 01:57:43;;;;;;;5.47;2.10;;;;;;;17.08;70.84;99509.25;4145309;28;20041;-65
2023/08/02 01:59:46;;;;;;;5.88;2.20;;;;;;;17.06;70.98;99515.44;4145058;28;20038;-65
2023/08/02 02:01:49;;;;;;;6.38;2.17;;;;;;;17.04;71.01;99502.34;4146018;28;20392;-65
2023/08/02 02:03:52;;;;;;;3.88;2.25;;;;;;;17.08;70.89;99503.09;4127591;28;20182;-65
2023/08/02 02:05:55;;;;;;;8.05;2.45;;;;;;;17.14;69.82;99483.69;4145976;28;20133;-65
2023/08/02 02:07:57;;;;;;;9.23;2.90;;;;;;;17.01;69.92;99473.56;4142943;28;20594;-65
2023/08/02 02:10:02;;;;;;;4.78;1.83;;;;;;;17.03;70.15;99463.84;4160569;28;20067;-66
2023/08/02 02:12:06;;;;;;;5.03;2.25;;;;;;;17.09;69.53;99463.66;4174875;22;20033;-64
2023/08/02 02:14:09;;;;;;;7.88;2.45;;;;;;;17.09;69.76;99461.03;4174800;28;20075;-64
2023/08/02 02:16:12;;;;;;;5.80;2.63;;;;;;;17.05;70.20;99466.44;4176829;28;20379;-64
2023/08/02 02:18:15;;;;;;;7.18;1.88;;;;;;;17.02;70.25;99470.00;4173923;28;20533;-64
2023/08/02 02:20:18;;;;;;;5.40;2.20;;;;;;;17.08;69.99;99461.09;4155715;28;20384;-64
2023/08/02 02:22:20;;;;;;;10.13;2.47;;;;;;;17.10;69.68;99462.78;4176937;28;20120;-64
2023/08/02 02:24:23;;;;;;;6.03;2.10;;;;;;;17.08;69.81;99459.34;4175809;28;20087;-64
2023/08/02 02:26:26;;;;;;;7.43;3.05;;;;;;;17.05;69.67;99461.19;4191198;28;20033;-64
2023/08/02 02:28:29;;;;;;;4.43;1.92;;;;;;;17.04;69.72;99457.69;4192154;28;20045;-64
2023/08/02 02:30:31;;;;;;;4.40;2.30;;;;;;;17.07;70.10;99446.25;4188028;28;20502;-64
2023/08/02 02:32:34;;;;;;;7.65;2.60;;;;;;;17.06;70.09;99450.63;4188693;28;20037;-64
2023/08/02 02:34:39;;;;;;;5.53;2.13;;;;;;;17.12;70.03;99448.75;4174186;28;20048;-63
2023/08/02 02:36:43;;;;;;;4.25;2.20;;;;;;;17.24;69.03;99443.13;4188170;28;20040;-64
2023/08/02 02:38:46;;;;;;;5.10;2.33;;;;;;;17.14;68.92;99439.03;4177014;28;20135;-64
2023/08/02 02:40:49;;;;;;;5.82;2.10;;;;;;;17.06;69.04;99432.25;4192231;28;20038;-64
2023/08/02 02:42:53;;;;;;;4.60;2.20;;;;;;;17.12;69.59;99427.72;4189306;28;20386;-64
2023/08/02 02:44:56;;;;;;;4.28;2.28;;;;;;;17.17;69.49;99428.44;4194383;28;20055;-64
2023/08/02 02:46:59;;;;;;;5.72;2.53;;;;;;;17.14;69.56;99425.91;4190988;28;20411;-64
2023/08/02 02:49:02;;;;;;;4.30;2.13;;;;;;;17.05;69.52;99413.91;4191096;28;20036;-64
2023/08/02 02:51:05;;;;;;;6.28;2.10;;;;;;;17.05;69.63;99422.63;4170226;28;20049;-64
2023/08/02 02:53:08;;;;;;;4.25;2.15;;;;;;;17.07;69.58;99420.84;4190237;28;20059;-64
2023/08/02 02:55:11;;;;;;;8.05;3.17;;;;;;;17.07;69.35;99420.84;4174601;28;20053;-64
2023/08/02 02:57:15;;;;;;;3.58;2.17;;;;;;;17.03;69.72;99421.84;4190172;28;20037;-64
2023/08/02 02:59:19;;;;;;;3.05;1.77;;;;;;;17.07;69.90;99420.84;4171355;28;20037;-64
2023/08/02 03:01:22;;;;;;;5.50;1.98;;;;;;;17.10;70.07;99410.25;4191659;28;20127;-64
2023/08/02 03:03:25;;;;;;;3.97;2.10;;;;;;;17.17;69.88;99410.06;4187011;28;20087;-64
2023/08/02 03:05:27;;;;;;;7.82;2.25;;;;;;;17.16;69.97;99408.38;4188729;28;20409;-64
2023/08/02 03:07:30;;;;;;;7.03;1.90;;;;;;;17.09;70.19;99412.91;4173999;28;20088;-64
2023/08/02 03:09:33;;;;;;;7.30;2.20;;;;;;;17.14;69.94;99405.75;4173137;28;20036;-64
2023/08/02 03:11:35;;;;;;;5.05;2.40;;;;;;;17.22;69.78;99398.50;4188918;28;20040;-64
2023/08/02 03:13:39;;;;;;;4.00;2.15;;;;;;;17.32;69.56;99388.59;4191104;28;20498;-64
2023/08/02 03:15:43;;;;;;;6.13;2.47;;;;;;;17.28;69.45;99389.59;4187807;28;20061;-64
2023/08/02 03:17:46;;;;;;;5.38;2.22;;;;;;;17.31;69.62;99376.34;4190076;28;20127;-64
2023/08/02 03:19:49;;;;;;;5.38;2.38;;;;;;;17.30;69.60;99379.03;4190984;28;20036;-64
2023/08/02 03:21:52;;;;;;;3.22;1.83;;;;;;;17.20;69.86;99375.81;4194958;28;20127;-64
2023/08/02 03:23:55;;;;;;;5.50;2.08;;;;;;;17.15;70.03;99370.72;4192706;28;20060;-64
2023/08/02 03:25:57;;;;;;;6.20;2.50;;;;;;;17.20;70.14;99367.94;4192108;28;20400;-64
2023/08/02 03:28:00;;;;;;;4.70;2.38;;;;;;;17.32;69.94;99357.06;4191545;28;20044;-64
2023/08/02 03:30:04;;;;;;;3.67;2.17;;;;;;;17.37;70.29;99363.03;4187961;28;21248;-64
2023/08/02 03:32:09;;;;;;;8.80;2.20;;;;;;;17.39;69.42;99361.22;4187172;28;20043;-64
2023/08/02 03:34:11;;;;;;;4.22;2.30;;;;;;;17.27;69.52;99358.97;4173988;28;20037;-64
2023/08/02 03:36:14;;;;;;;4.05;2.25;;;;;;;17.24;69.80;99352.06;4184812;28;20478;-64
2023/08/02 03:38:16;;;;;;;6.25;2.63;;;;;;;17.24;69.88;99343.31;4191683;28;20047;-64
2023/08/02 03:40:19;;;;;;;6.20;2.63;;;;;;;17.26;70.08;99336.25;4192871;28;20044;-64
2023/08/02 03:42:22;;;;;;;5.75;2.28;;;;;;;17.31;70.17;99342.22;4189279;28;20047;-64
2023/08/02 03:44:25;;;;;;;4.60;1.65;;;;;;;17.38;70.04;99340.25;4173910;28;20048;-64
2023/08/02 03:46:28;;;;;;;5.00;2.42;;;;;;;17.34;69.91;99339.47;4188861;28;20055;-64
2023/08/02 03:48:32;;;;;;;4.28;2.03;;;;;;;17.31;70.09;99344.00;4175426;28;20468;-64
2023/08/02 03:50:35;;;;;;;4.00;2.22;;;;;;;17.30;70.27;99355.41;4175568;28;20037;-64
2023/08/02 03:52:38;;;;;;;3.75;2.33;;;;;;;17.29;70.37;99351.91;4192021;28;20044;-63
2023/08/02 03:54:41;;;;;;;2.97;1.88;;;;;;;17.36;70.38;99353.44;4155428;28;20042;-64
2023/08/02 03:56:44;;;;;;;3.20;1.70;;;;;;;17.32;70.74;99350.94;4174049;28;20410;-64
2023/08/02 03:58:47;;;;;;;5.13;2.35;;;;;;;17.35;70.35;99345.63;4178473;28;20043;-63
2023/08/02 04:00:51;;;;;;;8.30;2.58;;;;;;;17.42;70.41;99339.22;4188722;28;20063;-64
2023/08/02 04:02:54;;;;;;;8.00;2.13;;;;;;;17.44;70.43;99329.53;4193024;28;20037;-63
2023/08/02 04:04:58;;;;;;;5.18;2.03;;;;;;;17.48;70.94;99320.66;4168240;28;20490;-64
2023/08/02 04:07:02;;;;;;;4.40;1.88;;;;;;;17.48;70.57;99323.28;4166389;28;20053;-64
2023/08/02 04:09:04;;;;;;;4.53;2.30;;;;;;;17.54;70.37;99317.81;4189304;28;20039;-64
2023/08/02 04:11:07;;;;;;;2.55;1.65;;;;;;;17.51;70.18;99310.06;4189809;28;20043;-64
2023/08/02 04:13:10;;;;;;;7.63;2.20;;;;;;;17.59;70.27;99304.53;4187751;28;20045;-63
2023/08/02 04:15:13;;;;;;;5.47;2.10;;;;;;;17.65;69.97;99308.72;4188377;28;20517;-64
2023/08/02 04:17:16;;;;;;;4.97;1.83;;;;;;;17.60;69.67;99301.00;4169308;28;20053;-64
2023/08/02 04:19:19;;;;;;;7.05;2.40;;;;;;;17.65;69.45;99299.06;4185186;28;20044;-63
2023/08/02 04:21:23;;;;;;;5.80;2.30;;;;;;;17.65;69.87;99290.31;4157276;28;20034;-63
2023/08/02 04:23:26;;;;;;;5.88;2.17;;;;;;;17.61;69.28;99281.69;4190398;28;20036;-64
2023/08/02 04:25:29;;;;;;;4.90;2.13;;;;;;;17.55;69.46;99284.50;4190292;28;20047;-64
2023/08/02 04:27:31;;;;;;;6.45;2.50;;;;;;;17.49;69.66;99268.97;4172623;28;20061;-64
2023/08/02 04:29:34;;;;;;;3.75;1.80;;;;;;;17.52;69.74;99274.09;4186597;28;20127;-64
2023/08/02 04:31:36;;;;;;;5.95;2.13;;;;;;;17.56;69.94;99275.72;4175047;28;20041;-64
2023/08/02 04:33:39;;;;;;;4.40;1.98;;;;;;;17.54;70.05;99281.03;4189116;28;20029;-63
2023/08/02 04:35:42;;;;;;;5.13;2.17;;;;;;;17.53;69.77;99276.69;4167588;28;20147;-64
2023/08/02 04:37:46;;;;;;;4.40;2.10;;;;;;;17.55;69.94;99284.50;4190882;28;20036;-64
2023/08/02 04:39:49;;;;;;;4.93;2.05;;;;;;;17.52;70.28;99275.00;4188913;28;20127;-64
2023/08/02 04:41:54;;;;;;;6.40;2.35;;;;;;;17.44;70.47;99279.63;4170916;28;20537;-64
2023/08/02 04:43:57;;;;;;;;;;;;;;;17.38;70.83;99288.56;4160205;28;20569;-64
2023/08/02 04:45:59;;;;;;;5.55;2.28;;;;;;;17.31;71.24;99284.41;4189037;28;19924;-63
2023/08/02 04:48:02;;;;;;;4.65;2.35;;;;;;;17.42;71.67;99284.94;4170439;28;20040;-64
2023/08/02 04:50:06;;;;;;;6.90;3.10;;;;;;;17.33;72.15;99290.47;4177982;28;20386;-63
2023/08/02 04:52:09;;;;;;;4.00;2.37;;;;;;;17.41;71.62;99296.34;4191347;28;20044;-64
2023/08/02 04:54:13;;;;;;;5.22;1.85;;;;;;;17.20;72.51;99295.28;4185037;28;20295;-64
2023/08/02 04:56:17;;;;;;;6.18;2.55;;;;;;;17.27;73.12;99298.56;4187146;28;20432;-64
2023/08/02 04:58:20;;;;;;;3.65;2.10;;;;;;;17.27;73.51;99302.06;4173444;28;20087;-64
2023/08/02 05:00:23;;;;;;;4.82;2.50;;;;;;;17.31;73.80;99307.22;4190952;28;20033;-63
2023/08/02 05:02:33;;;;;;;3.85;1.95;;;;;;;17.26;74.26;99294.22;4190566;28;20041;-64
2023/08/02 05:04:36;;;;;;;5.05;2.38;;;;;;;17.16;74.31;99284.94;4189324;28;20119;-64
2023/08/02 05:06:39;;;;;;;5.13;2.47;;;;;;;17.22;74.45;99293.44;4194324;28;20037;-64
2023/08/02 05:08:42;;;;;;;4.72;2.75;;;;;;;17.18;75.48;99294.44;4176552;28;20585;-64
2023/08/02 05:10:47;;;;;;;5.13;2.85;;;;;;;17.20;75.14;99295.28;4192922;28;20028;-64
2023/08/02 05:12:49;;;;;;;6.18;2.28;;;;;;;17.18;75.47;99297.06;4193265;28;20040;-64
2023/08/02 05:14:51;;;;;;;4.15;2.35;;;;;;;17.25;75.28;99282.00;4191605;28;20047;-64
2023/08/02 05:16:54;;;;;;;6.07;2.72;;;;;;;17.26;75.83;99283.72;4189551;28;20051;-64
2023/08/02 05:18:57;;;;;;;3.85;2.33;;;;;;;17.17;76.30;99278.75;4195496;28;20040;-64
2023/08/02 05:21:00;;;;;;;5.40;2.83;;;;;;;17.16;76.71;99282.31;4189564;28;20042;-64
2023/08/02 05:23:03;;;;;;;5.22;2.83;;;;;;;17.07;77.01;99280.81;4190632;28;20060;-64
2023/08/02 05:25:08;;;;;;;4.47;2.22;;;;;;;17.13;77.24;99271.88;4192172;28;20044;-64
2023/08/02 05:27:12;;;;;;;4.85;2.47;;;;;;;17.33;76.35;99263.34;4188242;28;20082;-64
2023/08/02 05:29:15;;;;;;;6.07;2.75;;;;;;;17.14;77.11;99260.47;4193089;28;20047;-64
2023/08/02 05:31:18;;;;;;;6.45;2.85;;;;;;;17.12;77.91;99265.75;4190832;28;20059;-64
2023/08/02 05:33:22;;;;;;;5.38;2.42;;;;;;;17.04;78.04;99271.28;4190806;28;20129;-64
2023/08/02 05:35:25;;;;;;;5.10;2.22;;;;;;;17.06;78.50;99269.44;4186841;28;20402;-65
2023/08/02 05:37:30;;;;;;;3.85;2.20;;;;;;;17.06;78.62;99261.56;4178023;28;20049;-65
2023/08/02 05:39:33;;;;;;;4.53;2.45;;;;;;;17.02;78.93;99265.19;4193519;28;20036;-64
2023/08/02 05:41:36;;;;;;;7.35;3.28;;;;;;;17.17;79.25;99257.72;4192020;28;20074;-65
2023/08/02 05:43:42;;;;;;;7.63;2.88;;;;;;;17.00;79.55;99260.91;4190735;28;20040;-65
2023/08/02 05:45:45;;;;;;;5.47;2.72;;;;;;;17.12;78.83;99265.75;4193599;28;20028;-65
2023/08/02 05:47:50;;;;;;;7.65;3.03;;;;;;;17.03;79.40;99260.81;4188374;28;20090;-65
2023/08/02 05:49:53;;;;;;;4.28;2.78;;;;;;;17.00;79.26;99251.25;4192472;28;20036;-65
2023/08/02 05:51:55;;;;;;;4.93;3.22;;;;;;;17.07;79.47;99250.16;4191141;28;20067;-65
2023/08/02 05:53:58;;;;;;;7.88;3.30;;;;;;;16.97;79.77;99246.13;4191598;28;20045;-65
2023/08/02 05:56:01;;;;;;;4.97;2.65;;;;;;;16.78;80.58;99251.03;4188111;28;20123;-64
2023/08/02 05:58:04;;;;;;;7.55;3.03;;;;;;;16.81;80.61;99256.19;4192995;28;20059;-65
2023/08/02 06:00:09;;;;;;;4.18;2.65;;;;;;;16.84;80.98;99255.25;4193897;28;20044;-65
2023/08/02 06:02:12;;;;;;;6.50;2.80;;;;;;;16.94;80.50;99251.47;4192861;28;20037;-65
2023/08/02 06:04:15;;;;;;;7.25;2.85;;;;;;;16.99;80.72;99239.03;4193246;28;20060;-65
2023/08/02 06:06:18;;;;;;;5.55;2.95;;;;;;;16.87;81.52;99231.53;4185594;28;20064;-65
2023/08/02 06:08:21;;;;;;;8.00;3.60;;;;;;;16.96;81.27;99223.38;4174017;28;20147;-65
2023/08/02 06:10:24;;;;;;;6.05;3.35;;;;;;;17.00;81.40;99219.75;4176870;28;20465;-65
2023/08/02 06:12:27;;;;;;;6.35;3.72;;;;;;;17.04;81.15;99215.25;4191194;28;20044;-65
2023/08/02 06:14:30;;;;;;;8.60;3.22;;;;;;;17.05;81.18;99203.84;4189294;28;20029;-65
2023/08/02 06:16:35;;;;;;;6.47;3.63;;;;;;;17.01;81.43;99194.34;4191075;28;20478;-65
2023/08/02 06:18:38;;;;;;;5.15;2.95;;;;;;;17.00;81.62;99193.50;4174338;28;20104;-65
2023/08/02 06:20:41;;;;;;;5.57;3.22;;;;;;;17.08;81.69;99186.25;4170947;28;20490;-65
2023/08/02 06:22:44;;;;;;;6.13;3.03;;;;;;;17.07;81.63;99188.91;4191026;28;20124;-65
2023/08/02 06:24:46;;;;;;;9.35;3.25;;;;;;;17.02;81.82;99190.81;4193591;28;20467;-65
2023/08/02 06:26:49;;;;;;;8.05;4.25;;;;;;;17.00;82.38;99183.00;4189773;28;20546;-65
2023/08/02 06:28:52;;;;;;;5.35;3.40;;;;;;;17.00;82.36;99171.66;4195070;28;20036;-65
2023/08/02 06:30:55;;;;;;;7.32;3.45;;;;;;;17.03;82.61;99161.88;4189550;28;20503;-65
2023/08/02 06:32:59;;;;;;;6.20;3.08;;;;;;;17.06;82.50;99161.78;4189763;28;20095;-65
2023/08/02 06:35:02;;;;;;;7.03;3.70;;;;;;;17.19;82.09;99156.13;4195037;28;20516;-65
2023/08/02 06:37:05;;;;;;;7.50;3.33;;;;;;;17.10;82.33;99154.69;4191888;28;20407;-65
2023/08/02 06:39:08;;;;;;;8.45;4.05;;;;;;;17.15;82.66;99149.25;4185431;28;20041;-65
2023/08/02 06:41:11;;;;;;;7.00;3.17;;;;;;;17.23;82.18;99152.47;4190669;28;20075;-65
2023/08/02 06:43:13;;;;;;;4.78;2.63;;;;;;;17.22;82.17;99145.53;4191327;28;20102;-65
2023/08/02 06:45:17;;;;;;;5.85;3.22;;;;;;;17.11;82.83;99138.00;4189668;28;20048;-65
2023/08/02 06:47:21;;;;;;;7.90;3.50;;;;;;;17.24;82.38;99136.69;4191950;28;20471;-65
2023/08/02 06:49:25;;;;;;;6.60;3.97;;;;;;;17.26;82.22;99136.63;4187234;28;20402;-65
2023/08/02 06:51:28;;;;;;;6.47;3.38;;;;;;;17.17;82.65;99122.06;4177368;28;20044;-65
2023/08/02 06:53:30;;;;;;;8.20;3.92;;;;;;;17.20;82.72;99110.56;4191749;28;20417;-64
2023/08/02 06:55:33;;;;;;;6.70;3.35;;;;;;;17.30;82.60;99111.94;4187026;28;20115;-64
2023/08/02 06:57:36;;;;;;;9.02;3.72;;;;;;;17.16;82.75;99115.06;4191511;28;20045;-64
2023/08/02 06:59:39;;;;;;;7.18;4.22;;;;;;;17.09;83.16;99110.94;4187197;28;20474;-65
2023/08/02 07:01:41;;;;;;;5.10;2.90;;;;;;;17.16;83.20;99104.56;4188827;28;20120;-65
2023/08/02 07:03:45;;;;;;;7.10;3.80;;;;;;;17.15;83.47;99107.25;4192594;28;20078;-65
2023/08/02 07:05:50;;;;;;;8.95;3.97;;;;;;;17.24;82.88;99094.66;4189270;28;20043;-65
2023/08/02 07:07:52;;;;;;;8.10;4.78;;;;;;;17.13;83.59;99094.19;4190221;28;20124;-65
2023/08/02 07:09:55;;;;;;;3.95;2.63;;;;;;;17.12;83.98;99091.59;4193559;28;20054;-65
2023/08/02 07:11:58;;;;;;;5.70;3.70;;;;;;;17.25;83.75;99090.25;4185600;28;20507;-65
2023/08/02 07:14:01;;;;;;;5.47;3.10;;;;;;;17.23;83.56;99073.69;4191583;28;20040;-65
2023/08/02 07:16:05;;;;;;;6.80;3.60;;;;;;;17.30;83.80;99069.91;4188514;28;20244;-65
2023/08/02 07:18:08;;;;;;;5.07;3.28;;;;;;;17.39;82.91;99069.63;4190207;28;20036;-64
2023/08/02 07:20:10;;;;;;;7.32;3.22;;;;;;;17.25;83.28;99072.72;4191557;28;20076;-64
2023/08/02 07:22:17;;;;;;;4.65;3.10;;;;;;;17.28;83.39;99077.00;4186782;28;20387;-64
2023/08/02 07:24:20;;;;;;;6.45;3.35;;;;;;;17.37;82.92;99071.41;4190608;28;20131;-64
2023/08/02 07:26:23;;;;;;;6.32;3.45;;;;;;;17.31;83.15;99058.50;4173234;28;20044;-64
2023/08/02 07:28:26;;;;;;;7.55;3.78;;;;;;;17.24;83.37;99059.66;4187753;28;20120;-65
2023/08/02 07:30:29;;;;;;;6.30;3.40;;;;;;;17.20;83.52;99060.66;4186385;28;20490;-64
2023/08/02 07:32:31;;;;;;;5.60;3.33;;;;;;;17.19;84.05;99057.19;4190450;28;20123;-64
2023/08/02 07:34:34;;;;;;;9.55;3.38;;;;;;;17.21;83.69;99057.13;4186281;28;20046;-64
2023/08/02 07:36:37;;;;;;;6.03;2.85;;;;;;;17.27;83.70;99062.16;4186995;28;20044;-64
2023/08/02 07:38:41;;;;;;;4.90;3.42;;;;;;;17.23;83.43;99052.66;4192979;28;20067;-64
2023/08/02 07:40:45;;;;;;;8.05;3.28;;;;;;;17.20;83.84;99053.66;4172748;28;20032;-64
2023/08/02 07:42:46;;;;;;;10.63;5.97;;;;;;;17.24;83.65;99041.25;4176068;28;20176;-64
2023/08/02 07:45:07;;;;;;;13.75;5.80;;;;;;;17.26;84.09;99034.19;4176292;28;20434;-64
2023/08/02 07:47:10;;;;;;;8.80;3.92;;;;;;;17.27;83.67;99023.63;4188369;28;20044;-64
2023/08/02 07:49:13;;;;;;;10.32;4.75;;;;;;;17.29;84.06;99018.31;4187081;28;20110;-64
2023/08/02 07:51:16;;;;;;;11.02;4.60;;;;;;;17.31;83.89;99007.75;4183977;28;20079;-65
2023/08/02 07:53:19;;;;;;;6.57;3.72;;;;;;;17.37;83.41;99002.28;4184509;28;20047;-64
2023/08/02 07:55:23;;;;;;;6.30;3.50;;;;;;;17.47;83.34;99014.16;4175253;28;20478;-65
2023/08/02 07:57:28;;;;;;;9.25;3.83;;;;;;;17.38;83.80;99015.34;4188740;28;20102;-64
2023/08/02 07:59:31;;;;;;;6.57;3.30;;;;;;;17.35;84.01;99017.25;4187675;28;20147;-64
2023/08/02 08:01:34;;;;;;;9.02;4.15;;;;;;;17.32;84.13;99002.44;4188531;28;20123;-64
2023/08/02 08:03:37;;;;;;;7.78;4.22;;;;;;;17.31;83.97;98982.34;4185673;28;20531;-64
2023/08/02 08:05:50;;;;;;;9.38;3.75;;;;;;;17.28;84.47;98979.84;4188130;28;20058;-64
2023/08/02 08:07:53;;;;;;;8.95;4.10;;;;;;;17.37;84.35;98984.72;4187614;28;20505;-64
2023/08/02 08:09:56;;;;;;;10.75;4.88;;;;;;;17.29;84.00;98981.56;4186443;28;20036;-64
2023/08/02 08:12:02;;;;;;;5.32;3.42;;;;;;;17.33;84.27;98975.25;4185011;28;20040;-64
2023/08/02 08:14:05;;;;;;;7.57;3.60;;;;;;;17.37;84.34;98974.22;4204075;22;20068;-68
2023/08/02 08:16:09;;;;;;;8.00;3.10;;;;;;;17.27;84.84;98976.34;4187263;28;20041;-68
2023/08/02 08:18:11;;;;;;;6.25;3.00;;;;;;;17.32;84.61;98984.06;4190111;28;20037;-68
2023/08/02 08:20:14;;;;;;;6.82;3.60;;;;;;;17.42;84.66;98984.56;4172009;28;20079;-69
2023/08/02 08:22:18;;;;;;;6.05;3.17;;;;;;;17.40;85.06;98981.97;4173391;28;20405;-68
2023/08/02 08:24:21;;;;;;;8.93;3.40;;;;;;;17.40;85.30;98976.72;4175965;28;20045;-69
2023/08/02 08:26:24;;;;;;;7.80;3.65;;;;;;;17.55;84.54;98971.81;4186464;28;20068;-69
2023/08/02 08:28:29;;;;;;;4.65;3.00;;;;;;;17.48;84.56;98972.97;4177649;28;20044;-69
2023/08/02 08:30:31;;;;;;;4.82;3.17;;;;;;;17.59;84.47;98973.41;4190733;28;20037;-68
2023/08/02 08:32:34;;;;;;;3.97;2.47;;;;;;;17.47;85.06;98977.38;4187448;28;20127;-69
2023/08/02 08:34:37;;;;;;;8.13;3.72;;;;;;;17.46;85.54;98965.13;4177351;28;20071;-69
2023/08/02 08:36:40;;;;;;;5.05;3.30;;;;;;;17.63;84.71;98957.47;4152048;28;20535;-68
2023/08/02 08:38:43;;;;;;;5.78;3.20;;;;;;;17.53;85.42;98950.84;4189905;28;20384;-69
2023/08/02 08:40:50;;;;;;;9.37;3.83;;;;;;;17.56;85.52;98960.41;4173186;28;20041;-69
2023/08/02 08:42:55;;;;;;;6.32;3.20;;;;;;;17.44;86.15;98957.31;4176477;28;20307;-68
2023/08/02 08:45:00;;;;;;;;;;;;;;;17.38;86.52;98949.69;4198177;28;20040;-69
2023/08/02 08:47:05;;;;;;;5.68;3.92;;;;;;;17.54;86.48;98942.06;4194598;28;19928;-69
2023/08/02 08:49:08;;;;;;;5.05;2.95;;;;;;;17.56;86.51;98955.97;4192764;28;20044;-69
2023/08/02 08:51:13;;;;;;;5.60;3.47;;;;;;;17.70;86.11;98944.94;4195022;28;20123;-69
2023/08/02 08:53:23;;;;;;;5.82;2.92;;;;;;;17.62;86.67;98934.75;4193248;28;20041;-69
2023/08/02 08:55:28;;;;;;;5.20;3.03;;;;;;;17.73;86.97;98926.41;4172641;28;20083;-69
2023/08/02 08:57:32;;;;;;;5.78;3.05;;;;;;;17.79;86.66;98931.44;4183154;28;20540;-68
2023/08/02 08:59:36;;;;;;;5.13;3.30;;;;;;;17.87;86.52;98920.63;4191889;28;20512;-69
2023/08/02 09:01:41;;;;;;;6.47;3.20;;;;;;;17.89;86.33;98921.41;4191246;28;20097;-69
2023/08/02 09:03:45;;;;;;;4.97;3.03;;;;;;;17.98;85.44;98920.22;4175959;28;20037;-68
2023/08/02 09:05:49;;;;;;;6.13;3.38;;;;;;;17.87;86.65;98923.25;4194988;28;20060;-69
2023/08/02 09:07:58;;;;;;;7.57;3.17;;;;;;;17.86;86.64;98920.66;4193064;28;20033;-68
2023/08/02 09:10:01;;;;;;;4.95;3.55;;;;;;;17.87;86.42;98919.75;4192522;28;20072;-68
2023/08/02 09:12:05;;;;;;;4.68;3.15;;;;;;;17.83;86.64;98918.16;4195322;28;20043;-68
2023/08/02 09:14:09;;;;;;;4.63;3.13;;;;;;;17.91;86.72;98924.84;4192478;28;20517;-68
2023/08/02 09:16:13;;;;;;;6.05;3.38;;;;;;;17.89;86.82;98915.31;4191946;28;20398;-68
2023/08/02 09:18:18;;;;;;;6.60;3.05;;;;;;;18.02;86.79;98916.53;4194734;28;20045;-68
2023/08/02 09:20:23;;;;;;;4.93;3.58;;;;;;;18.06;86.68;98910.25;4192383;28;20043;-69
2023/08/02 09:22:28;;;;;;;5.85;3.67;;;;;;;18.02;86.46;98913.03;4189493;28;20128;-68
2023/08/02 09:24:32;;;;;;;6.85;3.55;;;;;;;17.92;86.96;98912.56;4178431;28;20043;-68
2023/08/02 09:26:35;;;;;;;;;;;;;;;17.89;87.61;98904.78;4175745;28;20498;-69
2023/08/02 09:28:37;;;;;;;3.78;2.88;;;;;;;17.96;87.13;98901.88;4189415;28;19975;-68
2023/08/02 09:30:40;;;;;;;6.00;3.65;;;;;;;18.05;86.51;98894.53;4196423;28;20474;-68
2023/08/02 09:32:58;;;;;;;5.20;3.25;;;;;;;18.13;86.57;98882.72;4193727;28;20509;-69
2023/08/02 09:35:04;;;;;;;5.60;3.47;;;;;;;18.04;87.20;98883.13;4190905;28;20048;-69
2023/08/02 09:37:06;;;;;;;4.53;3.30;;;;;;;18.09;86.83;98886.44;4188557;28;20029;-69
2023/08/02 09:39:14;;;;;;;4.75;3.25;;;;;;;18.03;87.21;98867.41;4193792;28;20090;-69
2023/08/02 09:41:22;;;;;;;4.60;2.90;;;;;;;17.99;87.20;98877.22;4187842;28;20060;-68